Time;durP1;ratioP1;P1;durP2;ratioP2;P2;SDS_P1;SDS_P2;PMS_P1;PMS_P2;Temp;Humidity;BMP_temperature;BMP_pressure;BME280_temperature;BME280_humidity;BME280_pressure;Samples;Min_cycle;Max_cycle;Signal;HPM_P1;HPM_P2
2023/09/09 05:04:06;;;;;;;;;;;;;;;;;;;;;
2023/09/09 06:02:53;;;;;;;;;;;;;;;15.32;70.09;99634.55;105156;1267;96621;-91
2023/09/09 06:05:40;;;;;;;;;;;;;;;;;;;;;
2023/09/09 06:09:04;;;;;;;;;;;;;;;15.52;70.16;99638.22;104885;1270;96616;-91
2023/09/09 06:11:51;;;;;;;;;;;;;;;15.59;70.43;99634.61;105314;1267;96953;-91
2023/09/09 06:14:24;;;;;;;;;;;;;;;15.66;70.40;99641.75;105242;1281;110071;-90
2023/09/09 06:16:53;;;;;;;;;;;;;;;15.72;70.51;99641.20;105904;1270;97451;-90
2023/09/09 06:19:22;;;;;;;;;;;;;;;15.79;70.49;99639.02;105115;1267;108448;-91
2023/09/09 06:21:53;;;;;;;;;;;;;;;15.86;70.57;99639.12;105296;1270;96725;-90
2023/09/09 06:24:21;;;;;;;;;;;;;;;15.93;70.55;99641.05;105619;1267;97457;-90
2023/09/09 06:26:49;;;;;;;;;;;;;;;16.00;70.63;99639.05;105821;1267;108257;-90
2023/09/09 06:29:17;;;;;;;;;;;;;;;16.07;70.60;99642.56;105762;1267;97441;-90
2023/09/09 06:31:46;;;;;;;;;;;;;;;16.16;70.64;99646.10;105683;1267;107500;-91
2023/09/09 06:34:14;;;;;;;;;;;;;;;16.24;70.75;99644.37;105764;1267;96631;-91
2023/09/09 06:36:43;;;;;;;;;;;;;;;16.32;70.89;99654.00;105760;1270;96532;-90
2023/09/09 06:39:13;;;;;;;;;;;;;;;16.39;70.79;99651.98;105875;1267;110087;-90
2023/09/09 06:41:46;;;;;;;;;;;;;;;16.48;70.90;99651.56;105667;1265;96544;-90
2023/09/09 06:44:15;;;;;;;;;;;;;;;16.55;70.92;99653.92;105585;1268;107776;-90
2023/09/09 06:46:44;;;;;;;;;;;;;;;16.62;70.98;99657.44;105853;1270;96619;-90
2023/09/09 06:49:14;;;;;;;;;;;;;;;16.70;70.96;99658.05;105673;1266;96554;-91
2023/09/09 06:51:46;;;;;;;;;;;;;;;16.76;70.92;99655.55;105549;1269;109684;-90
2023/09/09 06:54:13;;;;;;;;;;;;;;;16.83;70.97;99657.64;105188;1265;96830;-92
2023/09/09 06:56:44;;;;;;;;;;;;;;;16.90;70.92;99656.63;105312;1266;108036;-91
2023/09/09 06:59:23;;;;;;;;;;;;;;;16.97;70.99;99660.65;105323;1265;97546;-91
2023/09/09 07:02:26;;;;;;;;;;;;;;;;;;;;;
2023/09/09 07:05:05;;;;;;;;;;;;;;;17.15;71.13;99662.16;105191;1270;108448;-91
2023/09/09 07:07:35;;;;;;;;;;;;;;;17.23;71.14;99663.02;105116;1267;96589;-90
2023/09/09 07:10:57;;;;;;;;;;;;;;;17.31;70.97;99668.23;104769;1276;111159;-89
2023/09/09 07:14:07;;;;;;;;;;;;;;;17.39;70.95;99672.13;104808;1275;96718;-90
2023/09/09 07:16:38;;;;;;;;;;;;;;;17.46;71.02;99675.66;104770;1275;96897;-90
2023/09/09 07:19:09;;;;;;;;;;;;;;;17.52;71.01;99674.91;104818;1286;109732;-90
2023/09/09 07:21:38;;;;;;;;;;;;;;;17.59;71.27;99671.60;104565;1273;96801;-89
2023/09/09 07:24:09;;;;;;;;;;;;;;;17.63;71.16;99671.90;104711;1272;107506;-90
2023/09/09 07:26:37;;;;;;;;;;;;;;;17.69;71.21;99669.54;104740;1276;96561;-90
2023/09/09 07:29:05;;;;;;;;;;;;;;;17.76;71.18;99670.54;104867;1279;96723;-89
2023/09/09 07:31:33;;;;;;;;;;;;;;;17.82;71.21;99668.52;105594;1267;109841;-90
2023/09/09 07:34:01;;;;;;;;;;;;;;;17.90;71.18;99671.80;106207;1267;96441;-90
2023/09/09 07:36:30;;;;;;;;;;;;;;;17.95;71.26;99670.02;105756;1267;106778;-93
2023/09/09 07:39:02;;;;;;;;;;;;;;;18.04;71.25;99672.67;105485;1267;96707;-90
2023/09/09 07:41:30;;;;;;;;;;;;;;;18.11;71.29;99677.20;105262;1272;96557;-91
2023/09/09 07:43:58;;;;;;;;;;;;;;;18.18;71.25;99677.96;105158;1267;110027;-89
2023/09/09 07:46:28;;;;;;;;;;;;;;;18.23;71.11;99677.81;105019;1271;96634;-88
2023/09/09 07:48:56;;;;;;;;;;;;;;;18.29;70.92;99680.67;105310;1267;106147;-91
2023/09/09 07:51:25;;;;;;;;;;;;;;;18.36;71.01;99682.86;105271;1267;96612;-89
2023/09/09 07:53:53;;;;;;;;;;;;;;;18.41;70.91;99683.62;105484;1266;97013;-89
2023/09/09 07:56:21;;;;;;;;;;;;;;;18.48;70.97;99685.92;105745;1267;108429;-89
2023/09/09 07:58:50;;;;;;;;;;;;;;;18.54;70.94;99683.74;105668;1270;96615;-91
2023/09/09 08:01:19;;;;;;;;;;;;;;;18.60;70.94;99684.54;105798;1267;106319;-89
2023/09/09 08:03:47;;;;;;;;;;;;;;;18.69;71.00;99683.16;105615;1266;96530;-90
2023/09/09 08:06:16;;;;;;;;;;;;;;;18.76;70.96;99682.46;105575;1267;95415;-90
2023/09/09 08:08:44;;;;;;;;;;;;;;;18.84;70.93;99678.05;105463;1266;109686;-88
2023/09/09 08:11:12;;;;;;;;;;;;;;;18.91;70.80;99674.20;105200;1265;96620;-88
2023/09/09 08:13:43;;;;;;;;;;;;;;;18.99;70.78;99678.35;105226;1267;107669;-89
2023/09/09 08:16:14;;;;;;;;;;;;;;;19.05;70.83;99673.54;105195;1273;96625;-90
2023/09/09 08:18:43;;;;;;;;;;;;;;;19.12;70.68;99670.92;105192;1267;96685;-89
2023/09/09 08:21:13;;;;;;;;;;;;;;;19.16;70.42;99669.74;105253;1267;109378;-90
2023/09/09 08:23:41;;;;;;;;;;;;;;;19.20;70.48;99672.61;105270;1272;97658;-90
2023/09/09 08:26:12;;;;;;;;;;;;;;;19.25;70.44;99670.16;105195;1270;107339;-90
2023/09/09 08:28:41;;;;;;;;;;;;;;;19.30;70.53;99668.06;105313;1270;96738;-93
2023/09/09 08:31:09;;;;;;;;;;;;;;;19.39;70.69;99668.42;105129;1272;96704;-90
2023/09/09 08:33:38;;;;;;;;;;;;;;;19.47;70.56;99669.27;104981;1267;109965;-90
2023/09/09 08:36:06;;;;;;;;;;;;;;;19.54;70.64;99668.08;105212;1270;97475;-91
2023/09/09 08:38:34;;;;;;;;;;;;;;;19.60;70.55;99665.94;105097;1269;107718;-89
2023/09/09 08:41:11;;;;;;;;;;;;;;;19.67;70.47;99665.11;105160;1265;97928;-89
2023/09/09 08:43:40;;;;;;;;;;;;;;;19.72;70.39;99663.38;105153;1270;96686;-90
2023/09/09 08:46:14;;;;;;;;;;;;;;;19.77;70.27;99660.16;105107;1274;109376;-89
2023/09/09 08:48:43;;;;;;;;;;;;;;;19.83;70.39;99662.38;105108;1267;97967;-89
2023/09/09 08:51:16;;;;;;;;;;;;;;;19.90;70.40;99661.20;105037;1267;107264;-89
2023/09/09 08:53:45;;;;;;;;;;;;;;;19.96;70.19;99666.35;105140;1271;96763;-90
2023/09/09 08:56:16;;;;;;;;;;;;;;;20.02;70.24;99665.17;105494;1268;96535;-90
2023/09/09 08:58:45;;;;;;;;;;;;;;;20.10;70.35;99668.37;105683;1272;110044;-93
2023/09/09 09:01:15;;;;;;;;;;;;;;;20.19;70.28;99665.55;105549;1273;96597;-89
2023/09/09 09:03:47;;;;;;;;;;;;;;;20.27;70.10;99663.23;105317;1267;107995;-91
2023/09/09 09:06:15;;;;;;;;;;;;;;;20.33;69.96;99658.71;105251;1270;96559;-90
2023/09/09 09:08:43;;;;;;;;;;;;;;;20.41;69.88;99659.05;105320;1267;96608;-90
2023/09/09 09:11:14;;;;;;;;;;;;;;;20.45;69.79;99655.72;105266;1267;110120;-90
2023/09/09 09:13:42;;;;;;;;;;;;;;;20.51;69.89;99653.77;105244;1270;96625;-90
2023/09/09 09:16:10;;;;;;;;;;;;;;;20.59;69.59;99656.64;105310;1270;107646;-92
2023/09/09 09:18:42;;;;;;;;;;;;;;;20.66;69.55;99659.31;105342;1268;96593;-92
2023/09/09 09:21:11;;;;;;;;;;;;;;;20.69;69.39;99653.02;105256;1270;96516;-91
2023/09/09 09:23:44;;;;;;;;;;;;;;;20.74;69.49;99651.80;105226;1267;110117;-90
2023/09/09 09:30:12;;;;;;;;;;;;;;;20.86;69.35;99647.64;105254;1270;109130;-90
2023/09/09 09:32:41;;;;;;;;;;;;;;;20.95;69.58;99644.56;105238;1268;96541;-90
2023/09/09 09:35:23;;;;;;;;;;;;;;;21.02;69.30;99647.03;105253;1267;96572;-90
2023/09/09 09:37:57;;;;;;;;;;;;;;;21.09;69.15;99646.57;105294;1267;109920;-91
2023/09/09 09:40:27;;;;;;;;;;;;;;;21.18;69.17;99645.77;105512;1268;96643;-91
2023/09/09 09:42:56;;;;;;;;;;;;;;;21.22;69.08;99651.16;105686;1270;107790;-91
2023/09/09 09:45:25;;;;;;;;;;;;;;;21.26;68.89;99651.14;105989;1265;96621;-90
2023/09/09 09:47:55;;;;;;;;;;;;;;;21.30;68.83;99653.45;105957;1270;96557;-91
2023/09/09 09:50:30;;;;;;;;;;;;;;;21.33;69.07;99653.45;105292;1271;110151;-91
2023/09/09 09:53:05;;;;;;;;;;;;;;;21.39;68.98;99656.59;105311;1265;96598;-91
2023/09/09 09:55:39;;;;;;;;;;;;;;;21.45;68.92;99655.24;105194;1265;107805;-91
2023/09/09 09:58:07;;;;;;;;;;;;;;;21.51;68.79;99647.74;105299;1281;96625;-90
2023/09/09 10:00:34;;;;;;;;;;;;;;;21.58;68.84;99639.73;105350;1270;96696;-90
2023/09/09 10:03:06;;;;;;;;;;;;;;;21.63;68.71;99637.55;105432;1267;108931;-90
2023/09/09 10:05:34;;;;;;;;;;;;;;;21.68;68.54;99637.22;105338;1268;96567;-90
2023/09/09 10:08:03;;;;;;;;;;;;;;;21.75;68.54;99633.83;105785;1265;107287;-90
2023/09/09 10:10:34;;;;;;;;;;;;;;;21.81;68.37;99632.33;105460;1267;97860;-90
2023/09/09 10:13:06;;;;;;;;;;;;;;;21.86;68.41;99632.16;105348;1267;97317;-90
2023/09/09 10:15:35;;;;;;;;;;;;;;;21.91;68.26;99631.48;105506;1270;110092;-90
2023/09/09 10:18:05;;;;;;;;;;;;;;;21.92;67.88;99628.46;105510;1265;96560;-91
2023/09/09 10:20:35;;;;;;;;;;;;;;;21.93;67.79;99624.16;105437;1267;107702;-90
2023/09/09 10:23:04;;;;;;;;;;;;;;;21.95;67.77;99623.45;105176;1265;96708;-90
2023/09/09 10:25:33;;;;;;;;;;;;;;;21.97;67.83;99624.05;105180;1269;96605;-92
2023/09/09 10:28:04;;;;;;;;;;;;;;;22.00;67.89;99623.20;105077;1265;262837;-92
2023/09/09 10:30:34;;;;;;;;;;;;;;;22.05;67.71;99619.05;105180;1271;96574;-92
2023/09/09 10:33:06;;;;;;;;;;;;;;;22.11;67.60;99625.64;105207;1267;107247;-92
2023/09/09 10:35:37;;;;;;;;;;;;;;;22.14;67.61;99622.76;105051;1270;96722;-90
2023/09/09 10:38:06;;;;;;;;;;;;;;;22.16;67.43;99621.94;105063;1267;96640;-90
2023/09/09 10:40:35;;;;;;;;;;;;;;;22.17;67.26;99620.65;105198;1273;109857;-90
2023/09/09 10:43:03;;;;;;;;;;;;;;;22.17;67.13;99619.90;105425;1268;96604;-90
2023/09/09 10:45:32;;;;;;;;;;;;;;;22.17;67.46;99618.25;105418;1274;108261;-89
2023/09/09 10:48:03;;;;;;;;;;;;;;;22.22;67.34;99620.46;105680;1265;96625;-90
2023/09/09 10:50:41;;;;;;;;;;;;;;;22.24;67.10;99618.69;105672;1267;96714;-90
2023/09/09 10:53:46;;;;;;;;;;;;;;;22.27;67.08;99618.98;105651;1270;110049;-90
2023/09/09 10:56:15;;;;;;;;;;;;;;;22.28;66.97;99617.70;105486;1267;97088;-90
2023/09/09 10:58:45;;;;;;;;;;;;;;;22.32;67.01;99618.43;105432;1272;107825;-90
2023/09/09 11:01:23;;;;;;;;;;;;;;;22.36;67.07;99616.63;105252;1270;96614;-89
2023/09/09 11:03:52;;;;;;;;;;;;;;;22.38;66.90;99611.75;105310;1268;96637;-90
2023/09/09 11:06:21;;;;;;;;;;;;;;;22.44;66.97;99612.52;105537;1268;108418;-91
2023/09/09 11:08:54;;;;;;;;;;;;;;;22.51;66.94;99608.87;106212;1267;96541;-91
2023/09/09 11:11:30;;;;;;;;;;;;;;;22.55;66.87;99610.91;106044;1273;107342;-92
2023/09/09 11:13:58;;;;;;;;;;;;;;;22.58;66.90;99609.35;105614;1265;96612;-90
2023/09/09 11:16:31;;;;;;;;;;;;;;;22.59;66.86;99611.41;105553;1270;96674;-91
2023/09/09 11:19:02;;;;;;;;;;;;;;;22.59;66.61;99605.91;105665;1270;110016;-91
2023/09/09 11:21:32;;;;;;;;;;;;;;;22.59;66.42;99608.54;105556;1270;95352;-90
2023/09/09 11:24:02;;;;;;;;;;;;;;;22.60;66.67;99602.09;105530;1267;107626;-90
2023/09/09 11:26:30;;;;;;;;;;;;;;;22.59;66.56;99601.76;105702;1270;96440;-92
2023/09/09 11:28:59;;;;;;;;;;;;;;;22.62;66.49;99604.76;105601;1273;96631;-93
2023/09/09 11:31:28;;;;;;;;;;;;;;;22.62;66.24;99603.27;105665;1273;110037;-92
2023/09/09 11:37:13;;;;;;;;;;;;;;;22.61;66.05;99597.64;105621;1270;107598;-92
2023/09/09 11:39:51;;;;;;;;;;;;;;;22.64;66.39;99597.45;105929;1268;97821;-91
2023/09/09 11:42:20;;;;;;;;;;;;;;;22.70;66.09;99595.33;105534;1265;96652;-92
2023/09/09 11:44:51;;;;;;;;;;;;;;;22.73;65.92;99592.30;105494;1273;108797;-90
2023/09/09 11:47:19;;;;;;;;;;;;;;;22.74;66.14;99593.58;105478;1270;96558;-91
2023/09/09 11:49:49;;;;;;;;;;;;;;;22.74;66.04;99589.94;105654;1273;106247;-90
2023/09/09 11:52:23;;;;;;;;;;;;;;;22.75;65.90;99588.21;105518;1266;96596;-91
2023/09/09 11:54:52;;;;;;;;;;;;;;;22.76;65.81;99588.85;106231;1272;96638;-91
2023/09/09 11:57:20;;;;;;;;;;;;;;;22.80;65.77;99587.81;106471;1270;108760;-91
2023/09/09 11:59:50;;;;;;;;;;;;;;;22.82;65.58;99582.75;106275;1267;96534;-89
2023/09/09 12:05:51;;;;;;;;;;;;;;;22.83;65.65;99583.48;105827;1268;96682;-91
2023/09/09 12:08:21;;;;;;;;;;;;;;;22.87;65.25;99578.34;105959;1267;96609;-91
2023/09/09 12:10:50;;;;;;;;;;;;;;;22.88;65.46;99579.45;105965;1267;109974;-90
2023/09/09 12:16:49;;;;;;;;;;;;;;;22.96;65.28;99574.13;105714;1265;107687;-90
2023/09/09 12:19:17;;;;;;;;;;;;;;;22.93;65.04;99572.41;105802;1267;96542;-90
2023/09/09 12:21:46;;;;;;;;;;;;;;;22.94;65.17;99566.91;105646;1267;96520;-91
2023/09/09 12:24:43;;;;;;;;;;;;;;;22.96;65.02;99569.86;105558;1267;110715;-91
2023/09/09 12:27:11;;;;;;;;;;;;;;;22.97;64.96;99564.55;105691;1267;96732;-92
2023/09/09 12:29:45;;;;;;;;;;;;;;;22.99;64.89;99567.01;105762;1268;107844;-90
2023/09/09 12:32:14;;;;;;;;;;;;;;;23.00;64.76;99559.55;105709;1267;96667;-92
2023/09/09 12:34:43;;;;;;;;;;;;;;;22.98;64.70;99560.64;105732;1268;96701;-90
2023/09/09 12:37:11;;;;;;;;;;;;;;;22.99;64.66;99560.83;105710;1270;109899;-90
2023/09/09 12:39:41;;;;;;;;;;;;;;;23.02;64.68;99558.52;105584;1268;96619;-92
2023/09/09 12:42:10;;;;;;;;;;;;;;;23.05;64.54;99558.11;105573;1268;107869;-90
2023/09/09 12:44:48;;;;;;;;;;;;;;;23.08;64.55;99556.77;105523;1270;96634;-90
2023/09/09 12:47:23;;;;;;;;;;;;;;;23.12;64.56;99559.05;106062;1270;96538;-90
2023/09/09 12:49:52;;;;;;;;;;;;;;;23.14;64.36;99556.08;105685;1268;109980;-91
2023/09/09 12:52:21;;;;;;;;;;;;;;;23.16;64.35;99560.85;105978;1266;96661;-91
2023/09/09 12:54:49;;;;;;;;;;;;;;;23.17;64.21;99559.23;105784;1269;108035;-91
2023/09/09 12:57:17;;;;;;;;;;;;;;;23.19;64.17;99558.39;105637;1270;96982;-91
2023/09/09 12:59:46;;;;;;;;;;;;;;;23.20;64.23;99559.88;105567;1268;97957;-91
2023/09/09 13:02:17;;;;;;;;;;;;;;;23.23;64.22;99561.61;105417;1268;108700;-90
2023/09/09 13:04:45;;;;;;;;;;;;;;;23.23;64.02;99556.86;105496;1268;96701;-90
2023/09/09 13:07:13;;;;;;;;;;;;;;;23.22;64.09;99554.27;105604;1267;107666;-89
2023/09/09 13:09:41;;;;;;;;;;;;;;;23.25;64.24;99547.23;105540;1267;96781;-91
2023/09/09 13:12:09;;;;;;;;;;;;;;;23.29;64.37;99551.05;105634;1265;96673;-90
2023/09/09 13:14:38;;;;;;;;;;;;;;;23.35;64.28;99553.77;105616;1268;109004;-89
2023/09/09 13:17:06;;;;;;;;;;;;;;;23.38;64.00;99553.50;105604;1270;97434;-90
2023/09/09 13:19:34;;;;;;;;;;;;;;;23.38;63.78;99554.77;105838;1270;107651;-91
2023/09/09 13:22:06;;;;;;;;;;;;;;;23.38;63.49;99552.02;106062;1270;97970;-90
2023/09/09 13:24:34;;;;;;;;;;;;;;;23.38;63.63;99551.27;105754;1270;96583;-92
2023/09/09 13:27:02;;;;;;;;;;;;;;;23.39;63.88;99553.46;105488;1270;109999;-89
2023/09/09 13:29:32;;;;;;;;;;;;;;;23.40;63.63;99548.91;105573;1267;96666;-90
2023/09/09 13:32:00;;;;;;;;;;;;;;;23.40;63.58;99549.35;105400;1268;107791;-91
2023/09/09 13:34:29;;;;;;;;;;;;;;;23.40;63.56;99549.80;105249;1273;96730;-90
2023/09/09 13:36:57;;;;;;;;;;;;;;;23.42;63.46;99547.23;105360;1267;96641;-90
2023/09/09 13:39:53;;;;;;;;;;;;;;;23.43;63.40;99550.71;105499;1270;112557;-90
2023/09/09 13:42:22;;;;;;;;;;;;;;;23.46;63.42;99552.85;105444;1270;96560;-90
2023/09/09 13:44:50;;;;;;;;;;;;;;;23.44;63.39;99557.37;105293;1267;107558;-90
2023/09/09 13:47:21;;;;;;;;;;;;;;;23.43;63.32;99557.33;105256;1272;96628;-91
2023/09/09 13:49:49;;;;;;;;;;;;;;;23.42;63.10;99558.77;105319;1271;96621;-88
2023/09/09 13:52:18;;;;;;;;;;;;;;;23.43;63.17;99558.27;105159;1270;109781;-89
2023/09/09 13:54:46;;;;;;;;;;;;;;;23.45;63.31;99557.46;105226;1270;96624;-90
2023/09/09 13:57:15;;;;;;;;;;;;;;;23.45;63.00;99552.55;105396;1270;108361;-89
2023/09/09 13:59:43;;;;;;;;;;;;;;;23.44;62.96;99552.70;105296;1270;96678;-90
2023/09/09 14:02:11;;;;;;;;;;;;;;;23.44;62.96;99553.48;105336;1268;96627;-91
2023/09/09 14:04:40;;;;;;;;;;;;;;;23.44;62.80;99552.23;105461;1269;109927;-90
2023/09/09 14:07:08;;;;;;;;;;;;;;;23.45;62.80;99549.33;105975;1267;97450;-90
2023/09/09 14:09:36;;;;;;;;;;;;;;;23.46;62.88;99547.51;105807;1268;107696;-90
2023/09/09 14:12:05;;;;;;;;;;;;;;;23.48;62.78;99551.17;105459;1270;96567;-91
2023/09/09 14:14:35;;;;;;;;;;;;;;;23.47;62.68;99548.86;105525;1270;97062;-90
2023/09/09 14:17:03;;;;;;;;;;;;;;;23.47;62.75;99548.65;105479;1265;110085;-91
2023/09/09 14:19:31;;;;;;;;;;;;;;;23.49;62.54;99548.73;105278;1266;96528;-92
2023/09/09 14:22:01;;;;;;;;;;;;;;;23.49;62.73;99550.10;105452;1270;107273;-92
2023/09/09 14:24:29;;;;;;;;;;;;;;;23.48;62.59;99546.86;105498;1269;96608;-90
2023/09/09 14:26:57;;;;;;;;;;;;;;;23.48;62.49;99549.30;105307;1270;96618;-91
2023/09/09 14:29:26;;;;;;;;;;;;;;;23.49;62.49;99549.89;105235;1267;109906;-91
2023/09/09 14:31:54;;;;;;;;;;;;;;;23.50;62.19;99543.52;105272;1268;96719;-91
2023/09/09 14:34:23;;;;;;;;;;;;;;;23.50;62.27;99542.92;105530;1272;107650;-91
2023/09/09 14:36:51;;;;;;;;;;;;;;;23.48;62.31;99535.55;105506;1273;96677;-91
2023/09/09 14:39:19;;;;;;;;;;;;;;;23.48;62.39;99536.48;105785;1270;96652;-91
2023/09/09 14:41:48;;;;;;;;;;;;;;;23.47;62.28;99534.41;105628;1268;109543;-91
2023/09/09 14:44:16;;;;;;;;;;;;;;;23.47;62.16;99535.36;105677;1270;96619;-89
2023/09/09 14:46:45;;;;;;;;;;;;;;;23.47;62.30;99537.63;105627;1272;108187;-92
2023/09/09 14:49:13;;;;;;;;;;;;;;;23.49;62.17;99539.62;105587;1268;97125;-93
2023/09/09 14:51:43;;;;;;;;;;;;;;;23.52;62.25;99534.10;105658;1267;96551;-92
2023/09/09 14:54:11;;;;;;;;;;;;;;;23.51;62.11;99535.73;105537;1267;109968;-91
2023/09/09 14:56:39;;;;;;;;;;;;;;;23.49;62.07;99534.02;105480;1271;96689;-91
2023/09/09 14:59:07;;;;;;;;;;;;;;;23.48;62.02;99532.50;105554;1265;107716;-91
2023/09/09 15:01:36;;;;;;;;;;;;;;;23.45;61.83;99531.58;105532;1268;96717;-91
2023/09/09 15:04:05;;;;;;;;;;;;;;;23.41;61.79;99530.47;105446;1270;96640;-89
2023/09/09 15:06:33;;;;;;;;;;;;;;;23.38;61.70;99525.45;105355;1270;109537;-90
2023/09/09 15:09:01;;;;;;;;;;;;;;;23.35;61.84;99528.86;105226;1271;96537;-91
2023/09/09 15:11:30;;;;;;;;;;;;;;;23.32;61.92;99527.91;105269;1267;107502;-90
2023/09/09 15:13:59;;;;;;;;;;;;;;;23.27;61.94;99526.20;105412;1271;96791;-90
2023/09/09 15:16:57;;;;;;;;;;;;;;;23.23;61.91;99527.95;105330;1270;96535;-90
2023/09/09 15:19:25;;;;;;;;;;;;;;;23.16;61.93;99525.70;105114;1270;108428;-91
2023/09/09 15:21:53;;;;;;;;;;;;;;;23.16;61.84;99526.73;105230;1270;96615;-90
2023/09/09 15:24:22;;;;;;;;;;;;;;;23.16;61.95;99526.19;105306;1270;107737;-90
2023/09/09 15:26:51;;;;;;;;;;;;;;;23.16;61.89;99523.61;105196;1273;96699;-90
2023/09/09 15:29:18;;;;;;;;;;;;;;;23.16;61.93;99524.18;105484;1268;96647;-92
2023/09/09 15:31:46;;;;;;;;;;;;;;;23.15;61.86;99523.71;105726;1267;109900;-92
2023/09/09 15:34:15;;;;;;;;;;;;;;;23.13;61.87;99527.19;105749;1270;96524;-92
2023/09/09 15:36:42;;;;;;;;;;;;;;;23.12;61.99;99527.34;105221;1271;107672;-90
2023/09/09 15:39:10;;;;;;;;;;;;;;;23.10;61.91;99524.04;105237;1268;96621;-91
2023/09/09 15:41:40;;;;;;;;;;;;;;;23.06;61.96;99523.84;105253;1271;96649;-90
2023/09/09 15:44:09;;;;;;;;;;;;;;;23.03;61.86;99523.13;106289;1267;109708;-91
2023/09/09 15:46:37;;;;;;;;;;;;;;;23.00;61.93;99527.06;105971;1267;96581;-91
2023/09/09 15:49:07;;;;;;;;;;;;;;;22.97;61.80;99527.11;105466;1270;108601;-91
2023/09/09 15:51:35;;;;;;;;;;;;;;;22.94;62.07;99526.05;105573;1268;96666;-91
2023/09/09 15:54:03;;;;;;;;;;;;;;;22.90;61.89;99528.48;105728;1270;96686;-90
2023/09/09 15:56:31;;;;;;;;;;;;;;;22.85;62.15;99528.85;105483;1273;109798;-91
2023/09/09 15:59:00;;;;;;;;;;;;;;;22.79;62.04;99525.04;105600;1268;96598;-91
2023/09/09 16:01:28;;;;;;;;;;;;;;;22.72;62.40;99525.48;105320;1273;108480;-90
2023/09/09 16:03:56;;;;;;;;;;;;;;;22.64;62.25;99528.05;105354;1267;96742;-91
2023/09/09 16:06:25;;;;;;;;;;;;;;;22.56;62.49;99528.82;105373;1268;96653;-91
2023/09/09 16:08:53;;;;;;;;;;;;;;;22.47;62.56;99531.81;105364;1266;110010;-90
2023/09/09 16:11:22;;;;;;;;;;;;;;;22.38;62.47;99529.94;105639;1273;96717;-89
2023/09/09 16:13:50;;;;;;;;;;;;;;;22.29;62.66;99528.55;105402;1275;107349;-89
2023/09/09 16:16:18;;;;;;;;;;;;;;;22.21;62.76;99530.92;106119;1267;96562;-90
2023/09/09 16:18:47;;;;;;;;;;;;;;;22.13;62.85;99533.09;106086;1267;96541;-89
2023/09/09 16:21:15;;;;;;;;;;;;;;;22.06;62.65;99534.09;105909;1268;108979;-92
2023/09/09 16:23:43;;;;;;;;;;;;;;;21.99;63.08;99535.99;105451;1273;96535;-91
2023/09/09 16:26:11;;;;;;;;;;;;;;;21.90;62.89;99538.34;105313;1268;107706;-91
2023/09/09 16:28:40;;;;;;;;;;;;;;;21.82;63.06;99537.80;105349;1268;96624;-91
2023/09/09 16:31:08;;;;;;;;;;;;;;;21.75;63.19;99536.67;105228;1267;96645;-91
2023/09/09 16:33:36;;;;;;;;;;;;;;;21.67;63.02;99536.82;105286;1270;109948;-92
2023/09/09 16:36:05;;;;;;;;;;;;;;;21.59;63.16;99535.15;105182;1268;96599;-90
2023/09/09 16:38:33;;;;;;;;;;;;;;;21.52;63.19;99533.77;105376;1268;107408;-91
2023/09/09 16:41:02;;;;;;;;;;;;;;;21.44;63.10;99530.86;105486;1267;96602;-90
2023/09/09 16:43:30;;;;;;;;;;;;;;;21.37;63.28;99531.50;105198;1268;96627;-89
2023/09/09 16:46:00;;;;;;;;;;;;;;;21.28;63.16;99528.79;105494;1267;109932;-92
2023/09/09 16:48:29;;;;;;;;;;;;;;;21.21;63.44;99527.10;105315;1267;96622;-93
2023/09/09 16:50:57;;;;;;;;;;;;;;;21.13;63.47;99531.37;105321;1268;108498;-93
2023/09/09 16:53:25;;;;;;;;;;;;;;;21.05;63.30;99536.91;105377;1273;96599;-91
2023/09/09 16:55:54;;;;;;;;;;;;;;;20.96;63.21;99538.02;105305;1267;96650;-93
2023/09/09 16:58:22;;;;;;;;;;;;;;;20.88;63.33;99536.39;105307;1273;109618;-91
2023/09/09 17:00:50;;;;;;;;;;;;;;;20.81;63.52;99537.19;105378;1273;96549;-91
2023/09/09 17:03:21;;;;;;;;;;;;;;;20.73;63.53;99534.95;105531;1271;107157;-92
2023/09/09 17:05:52;;;;;;;;;;;;;;;20.66;63.54;99535.34;105369;1269;96698;-90
2023/09/09 17:08:20;;;;;;;;;;;;;;;20.59;63.75;99540.26;105384;1272;96745;-90
2023/09/09 17:10:51;;;;;;;;;;;;;;;20.52;63.70;99535.38;105326;1274;110808;-90
2023/09/09 17:13:19;;;;;;;;;;;;;;;20.46;63.87;99537.66;105495;1272;96651;-90
